Time,TemperatureF,DewpointF,PressureIn,WindDirection,WindDirectionDegrees,WindSpeedMPH,WindSpeedGustMPH,Humidity,HourlyPrecipIn,Conditions,Clouds,dailyrainin,SoftwareType,DateUTC
2015-08-28 00:03:00,65.0,45.0,-100.00,ENE,60,2.0,6.0,49,-99.99,,,-99.99,,2015-08-28 07:03:00,
2015-08-28 00:12:00,64.0,47.0,-100.00,NW,320,2.0,7.0,54,-99.99,,,-99.99,,2015-08-28 07:12:00,
2015-08-28 00:34:00,64.0,47.0,-100.00,NW,320,2.0,7.0,54,-99.99,,,-99.99,,2015-08-28 07:34:00,
2015-08-28 00:44:00,64.0,47.0,-100.00,NW,320,2.0,7.0,54,-99.99,,,-99.99,,2015-08-28 07:44:00,
2015-08-28 00:53:00,64.0,47.0,-100.00,NW,320,2.0,7.0,54,-99.99,,,-99.99,,2015-08-28 07:53:00,
2015-08-28 01:03:00,64.0,47.0,-100.00,NW,320,2.0,7.0,54,-99.99,,,-99.99,,2015-08-28 08:03:00,
2015-08-28 01:12:00,58.0,51.0,-100.00,NNW,331,4.0,7.0,78,-99.99,,,-99.99,,2015-08-28 08:12:00,
2015-08-28 01:33:00,58.0,51.0,-100.00,NNW,331,4.0,7.0,78,-99.99,,,-99.99,,2015-08-28 08:33:00,
2015-08-28 01:44:00,58.0,51.0,-100.00,NNW,331,4.0,7.0,78,-99.99,,,-99.99,,2015-08-28 08:44:00,
2015-08-28 01:54:00,58.0,51.0,-100.00,NNW,331,4.0,7.0,78,-99.99,,,-99.99,,2015-08-28 08:54:00,
2015-08-28 02:03:00,58.0,51.0,-100.00,NNW,331,4.0,7.0,78,-99.99,,,-99.99,,2015-08-28 09:03:00,
2015-08-28 02:12:00,56.0,51.0,-100.00,ESE,113,4.0,9.0,84,-99.99,,,-99.99,,2015-08-28 09:12:00,
2015-08-28 02:34:00,56.0,51.0,-100.00,ESE,113,4.0,9.0,84,-99.99,,,-99.99,,2015-08-28 09:34:00,
2015-08-28 02:44:00,56.0,51.0,-100.00,ESE,113,4.0,9.0,84,-99.99,,,-99.99,,2015-08-28 09:44:00,
2015-08-28 02:53:00,56.0,51.0,-100.00,ESE,113,4.0,9.0,84,-99.99,,,-99.99,,2015-08-28 09:53:00,
2015-08-28 03:03:00,56.0,51.0,-100.00,ESE,113,4.0,9.0,84,-99.99,,,-99.99,,2015-08-28 10:03:00,
2015-08-28 03:12:00,58.0,52.0,-100.00,NE,55,3.0,9.0,80,-99.99,,,-99.99,,2015-08-28 10:12:00,
2015-08-28 03:34:00,58.0,52.0,-100.00,NE,55,3.0,9.0,80,-99.99,,,-99.99,,2015-08-28 10:34:00,
2015-08-28 03:44:00,58.0,52.0,-100.00,NE,55,3.0,9.0,80,-99.99,,,-99.99,,2015-08-28 10:44:00,
2015-08-28 03:54:00,58.0,52.0,-100.00,NE,55,3.0,9.0,80,-99.99,,,-99.99,,2015-08-28 10:54:00,
2015-08-28 04:03:00,58.0,52.0,-100.00,NE,55,3.0,9.0,80,-99.99,,,-99.99,,2015-08-28 11:03:00,
2015-08-28 04:12:00,55.0,52.0,-100.00,ESE,114,3.0,10.0,89,-99.99,,,-99.99,,2015-08-28 11:12:00,
2015-08-28 04:35:00,55.0,52.0,-100.00,ESE,114,3.0,10.0,89,-99.99,,,-99.99,,2015-08-28 11:35:00,
2015-08-28 04:44:00,55.0,52.0,-100.00,ESE,114,3.0,10.0,89,-99.99,,,-99.99,,2015-08-28 11:44:00,
2015-08-28 04:54:00,55.0,52.0,-100.00,ESE,114,3.0,10.0,89,-99.99,,,-99.99,,2015-08-28 11:54:00,
2015-08-28 05:04:00,55.0,52.0,-100.00,ESE,114,3.0,10.0,89,-99.99,,,-99.99,,2015-08-28 12:04:00,
2015-08-28 05:12:00,54.0,51.0,-100.00,SSE,168,3.0,12.0,89,-99.99,,,-99.99,,2015-08-28 12:12:00,
2015-08-28 05:34:00,54.0,51.0,-100.00,SSE,168,3.0,12.0,89,-99.99,,,-99.99,,2015-08-28 12:34:00,
2015-08-28 05:44:00,54.0,51.0,-100.00,SSE,168,3.0,12.0,89,-99.99,,,-99.99,,2015-08-28 12:44:00,
2015-08-28 05:54:00,54.0,51.0,-100.00,SSE,168,3.0,12.0,89,-99.99,,,-99.99,,2015-08-28 12:54:00,
2015-08-28 06:04:00,54.0,51.0,-100.00,SSE,168,3.0,12.0,89,-99.99,,,-99.99,,2015-08-28 13:04:00,
2015-08-28 06:12:00,54.0,53.0,-100.00,ESE,102,2.0,10.0,96,-99.99,,,-99.99,,2015-08-28 13:12:00,
2015-08-28 06:34:00,54.0,53.0,-100.00,ESE,102,2.0,10.0,96,-99.99,,,-99.99,,2015-08-28 13:34:00,
2015-08-28 06:44:00,54.0,53.0,-100.00,ESE,102,2.0,10.0,96,-99.99,,,-99.99,,2015-08-28 13:44:00,
2015-08-28 06:53:00,54.0,53.0,-100.00,ESE,102,2.0,10.0,96,-99.99,,,-99.99,,2015-08-28 13:53:00,
2015-08-28 07:03:00,54.0,53.0,-100.00,ESE,102,2.0,10.0,96,-99.99,,,-99.99,,2015-08-28 14:03:00,
2015-08-28 07:12:00,53.0,52.0,-100.00,ESE,115,3.0,6.0,97,-99.99,,,-99.99,,2015-08-28 14:12:00,
2015-08-28 07:34:00,53.0,52.0,-100.00,ESE,115,3.0,6.0,97,-99.99,,,-99.99,,2015-08-28 14:34:00,
2015-08-28 07:44:00,53.0,52.0,-100.00,ESE,115,3.0,6.0,97,-99.99,,,-99.99,,2015-08-28 14:44:00,
2015-08-28 07:53:00,53.0,52.0,-100.00,ESE,115,3.0,6.0,97,-99.99,,,-99.99,,2015-08-28 14:53:00,
2015-08-28 08:03:00,53.0,52.0,-100.00,ESE,115,3.0,6.0,97,-99.99,,,-99.99,,2015-08-28 15:03:00,
2015-08-28 08:12:00,54.0,53.0,-100.00,ESE,117,3.0,5.0,95,-99.99,,,-99.99,,2015-08-28 15:12:00,
2015-08-28 08:34:00,54.0,53.0,-100.00,ESE,117,3.0,5.0,95,-99.99,,,-99.99,,2015-08-28 15:34:00,
2015-08-28 08:47:00,54.0,53.0,-100.00,ESE,117,3.0,5.0,95,-99.99,,,-99.99,,2015-08-28 15:47:00,
2015-08-28 08:54:00,54.0,53.0,-100.00,ESE,117,3.0,5.0,95,-99.99,,,-99.99,,2015-08-28 15:54:00,
2015-08-28 09:03:00,54.0,53.0,-100.00,ESE,117,3.0,5.0,95,-99.99,,,-99.99,,2015-08-28 16:03:00,
2015-08-28 09:12:00,56.0,55.0,-100.00,SSE,160,2.0,5.0,95,-99.99,,,-99.99,,2015-08-28 16:12:00,
2015-08-28 09:34:00,56.0,55.0,-100.00,SSE,160,2.0,5.0,95,-99.99,,,-99.99,,2015-08-28 16:34:00,
2015-08-28 09:44:00,56.0,55.0,-100.00,SSE,160,2.0,5.0,95,-99.99,,,-99.99,,2015-08-28 16:44:00,
2015-08-28 09:54:00,56.0,55.0,-100.00,SSE,160,2.0,5.0,95,-99.99,,,-99.99,,2015-08-28 16:54:00,
2015-08-28 10:03:00,56.0,55.0,-100.00,SSE,160,2.0,5.0,95,-99.99,,,-99.99,,2015-08-28 17:03:00,
2015-08-28 10:12:00,60.0,57.0,-100.00,North,-9999,0.0,8.0,89,-99.99,,,-99.99,,2015-08-28 17:12:00,
2015-08-28 10:34:00,60.0,57.0,-100.00,North,-9999,0.0,8.0,89,-99.99,,,-99.99,,2015-08-28 17:34:00,
2015-08-28 10:44:00,60.0,57.0,-100.00,North,-9999,0.0,8.0,89,-99.99,,,-99.99,,2015-08-28 17:44:00,
2015-08-28 10:54:00,60.0,57.0,-100.00,North,-9999,0.0,8.0,89,-99.99,,,-99.99,,2015-08-28 17:54:00,
2015-08-28 11:03:00,60.0,57.0,-100.00,North,-9999,0.0,8.0,89,-99.99,,,-99.99,,2015-08-28 18:03:00,
2015-08-28 11:12:00,62.0,56.0,-100.00,WNW,295,4.0,12.0,82,-99.99,,,-99.99,,2015-08-28 18:12:00,
2015-08-28 11:34:00,62.0,56.0,-100.00,WNW,295,4.0,12.0,82,-99.99,,,-99.99,,2015-08-28 18:34:00,
2015-08-28 11:44:00,62.0,56.0,-100.00,WNW,295,4.0,12.0,82,-99.99,,,-99.99,,2015-08-28 18:44:00,
2015-08-28 11:54:00,62.0,56.0,-100.00,WNW,295,4.0,12.0,82,-99.99,,,-99.99,,2015-08-28 18:54:00,
2015-08-28 12:03:00,62.0,56.0,-100.00,WNW,295,4.0,12.0,82,-99.99,,,-99.99,,2015-08-28 19:03:00,
2015-08-28 12:12:00,59.0,56.0,-100.00,West,274,2.0,10.0,89,-99.99,,,-99.99,,2015-08-28 19:12:00,
2015-08-28 12:34:00,59.0,56.0,-100.00,West,274,2.0,10.0,89,-99.99,,,-99.99,,2015-08-28 19:34:00,
2015-08-28 12:44:00,59.0,56.0,-100.00,West,274,2.0,10.0,89,-99.99,,,-99.99,,2015-08-28 19:44:00,
2015-08-28 12:54:00,59.0,56.0,-100.00,West,274,2.0,10.0,89,-99.99,,,-99.99,,2015-08-28 19:54:00,
2015-08-28 13:03:00,59.0,56.0,-100.00,West,274,2.0,10.0,89,-99.99,,,-99.99,,2015-08-28 20:03:00,